Time;durP1;ratioP1;P1;durP2;ratioP2;P2;SDS_P1;SDS_P2;PMS_P1;PMS_P2;Temp;Humidity;BMP_temperature;BMP_pressure;BME280_temperature;BME280_humidity;BME280_pressure;Samples;Min_cycle;Max_cycle;Signal;HPM_P1;HPM_P2
2023/04/18 00:01:47;;;;;;;3.28;2.20;;;16.20;49.40;;;;;;6155664;23;20001;-67
2023/04/18 00:04:13;;;;;;;3.10;2.33;;;16.10;49.30;;;;;;6155550;23;19998;-68
2023/04/18 00:06:39;;;;;;;2.95;2.47;;;16.10;49.30;;;;;;6155681;23;20005;-67
2023/04/18 00:09:05;;;;;;;3.15;2.50;;;16.10;49.10;;;;;;6155440;23;20009;-68
2023/04/18 00:11:30;;;;;;;2.80;2.50;;;16.00;49.30;;;;;;6155543;23;19998;-67
2023/04/18 00:13:57;;;;;;;3.17;2.25;;;16.10;49.50;;;;;;6155394;23;20107;-68
2023/04/18 00:16:23;;;;;;;3.05;2.25;;;16.00;49.20;;;;;;6155518;23;20005;-68
2023/04/18 00:18:50;;;;;;;2.42;2.22;;;16.00;49.50;;;;;;6155391;23;20002;-68
2023/04/18 00:21:16;;;;;;;3.10;2.25;;;16.00;49.50;;;;;;6155468;23;20072;-67
2023/04/18 00:23:42;;;;;;;4.85;2.45;;;16.00;49.50;;;;;;6155229;23;20039;-67
2023/04/18 00:26:08;;;;;;;2.83;2.20;;;16.00;50.00;;;;;;6155794;23;20076;-68
2023/04/18 00:28:34;;;;;;;2.53;2.08;;;16.00;50.00;;;;;;6155444;23;20340;-67
2023/04/18 00:30:59;;;;;;;3.45;2.20;;;15.90;50.00;;;;;;6155280;23;20008;-67
2023/04/18 00:33:25;;;;;;;2.58;2.33;;;15.80;50.60;;;;;;6155632;23;20452;-67
2023/04/18 00:35:52;;;;;;;2.53;2.10;;;15.80;50.90;;;;;;6155463;23;20005;-67
2023/04/18 00:38:18;;;;;;;2.55;2.10;;;15.80;50.60;;;;;;6155370;23;20491;-68
2023/04/18 00:40:44;;;;;;;2.47;2.17;;;15.70;51.00;;;;;;6155460;23;20036;-67
2023/04/18 00:43:12;;;;;;;3.30;2.63;;;15.70;50.70;;;;;;6155378;23;20503;-67
2023/04/18 00:45:38;;;;;;;4.50;2.53;;;15.70;51.00;;;;;;6155265;23;20029;-68
2023/04/18 00:48:04;;;;;;;2.40;2.03;;;15.70;51.40;;;;;;6155384;23;20425;-67
2023/04/18 00:50:30;;;;;;;4.53;2.85;;;15.70;51.40;;;;;;6155138;23;20017;-67
2023/04/18 00:52:57;;;;;;;3.70;2.15;;;15.70;51.20;;;;;;6155479;23;20335;-67
2023/04/18 00:55:23;;;;;;;2.33;2.08;;;15.70;51.50;;;;;;6155600;23;20013;-67
2023/04/18 00:57:50;;;;;;;2.63;2.20;;;15.70;51.40;;;;;;6153683;23;20005;-67
2023/04/18 01:00:16;;;;;;;2.40;2.20;;;15.60;51.00;;;;;;6151600;23;20085;-67
2023/04/18 01:02:42;;;;;;;4.45;2.47;;;15.60;51.70;;;;;;6152162;23;20101;-67
2023/04/18 01:05:08;;;;;;;2.80;2.30;;;15.60;52.20;;;;;;6153564;23;20436;-67
2023/04/18 01:07:36;;;;;;;2.85;2.20;;;15.50;52.20;;;;;;6155186;23;20332;-68
2023/04/18 01:10:03;;;;;;;2.55;2.35;;;15.50;52.30;;;;;;6154980;23;20019;-68
2023/04/18 01:12:28;;;;;;;3.28;2.35;;;15.50;52.90;;;;;;6155887;23;20085;-68
2023/04/18 01:14:54;;;;;;;2.58;2.30;;;15.50;52.60;;;;;;6154912;23;20420;-68
2023/04/18 01:17:22;;;;;;;3.15;2.40;;;15.50;52.50;;;;;;6155327;23;20005;-68
2023/04/18 01:19:47;;;;;;;3.15;2.58;;;15.40;52.70;;;;;;6155168;23;20092;-68
2023/04/18 01:22:14;;;;;;;5.57;2.33;;;15.50;52.90;;;;;;6154901;23;20029;-68
2023/04/18 01:24:40;;;;;;;2.30;2.10;;;15.40;52.80;;;;;;6155236;23;20001;-68
2023/04/18 01:27:09;;;;;;;2.50;2.05;;;15.40;53.30;;;;;;6155030;23;20428;-68
2023/04/18 01:29:35;;;;;;;2.65;2.17;;;15.40;53.40;;;;;;6155252;23;20021;-68
2023/04/18 01:32:01;;;;;;;2.35;2.10;;;15.40;53.80;;;;;;6154724;23;20093;-68
2023/04/18 01:34:27;;;;;;;2.92;2.50;;;15.40;53.50;;;;;;6154795;23;20080;-68
2023/04/18 01:36:53;;;;;;;2.88;2.58;;;15.30;53.20;;;;;;6155059;23;20076;-68
2023/04/18 01:39:18;;;;;;;3.45;2.47;;;15.30;53.20;;;;;;6155240;23;20001;-68
2023/04/18 01:41:44;;;;;;;2.22;2.00;;;15.30;53.30;;;;;;6155223;23;20006;-68
2023/04/18 01:44:10;;;;;;;2.50;2.30;;;15.30;53.20;;;;;;6154540;23;20008;-68
2023/04/18 01:46:36;;;;;;;2.78;2.42;;;15.30;53.20;;;;;;6155009;23;20005;-68
2023/04/18 01:49:02;;;;;;;2.45;2.20;;;15.30;53.10;;;;;;6155287;23;20037;-67
2023/04/18 01:51:27;;;;;;;3.15;2.30;;;15.30;53.80;;;;;;6155624;23;20451;-67
2023/04/18 01:53:53;;;;;;;3.13;2.72;;;15.30;53.90;;;;;;6157314;23;20004;-68
2023/04/18 01:56:19;;;;;;;3.33;2.50;;;15.30;53.50;;;;;;6156515;23;20096;-68
2023/04/18 01:58:45;;;;;;;2.92;2.40;;;15.30;53.70;;;;;;6157184;23;20321;-68
2023/04/18 02:01:11;;;;;;;4.05;2.50;;;15.30;53.80;;;;;;6156926;23;20140;-67
2023/04/18 02:03:37;;;;;;;3.17;2.53;;;15.30;53.90;;;;;;6156674;23;20005;-67
2023/04/18 02:06:03;;;;;;;2.88;2.50;;;15.20;54.20;;;;;;6156970;23;20077;-68
2023/04/18 02:08:31;;;;;;;2.85;2.10;;;15.20;54.30;;;;;;6156933;23;20012;-68
2023/04/18 02:10:57;;;;;;;2.38;2.10;;;15.20;54.50;;;;;;6156798;23;20009;-68
2023/04/18 02:13:23;;;;;;;3.28;2.97;;;15.20;55.00;;;;;;6156564;23;20006;-68
2023/04/18 02:15:49;;;;;;;3.03;2.72;;;15.20;54.90;;;;;;6156477;23;20009;-68
2023/04/18 02:18:16;;;;;;;2.78;2.50;;;15.10;54.70;;;;;;6156634;23;20002;-67
2023/04/18 02:20:42;;;;;;;2.97;2.35;;;15.10;54.80;;;;;;6156807;23;20002;-67
2023/04/18 02:23:07;;;;;;;2.83;2.53;;;15.00;55.20;;;;;;6156800;23;20002;-67
2023/04/18 02:25:33;;;;;;;4.00;2.67;;;15.00;55.30;;;;;;6156597;23;20055;-67
2023/04/18 02:27:59;;;;;;;3.50;2.63;;;15.00;55.30;;;;;;6156403;23;20320;-68
2023/04/18 02:30:25;;;;;;;4.40;2.70;;;15.00;55.30;;;;;;6130081;23;20531;-67
2023/04/18 02:32:53;;;;;;;3.17;2.50;;;15.00;55.60;;;;;;6156961;23;20052;-68
2023/04/18 02:35:20;;;;;;;5.18;2.60;;;15.00;55.80;;;;;;6156837;23;20016;-68
2023/04/18 02:37:45;;;;;;;3.30;2.67;;;14.90;55.70;;;;;;6156805;23;20007;-68
2023/04/18 02:40:11;;;;;;;4.50;2.30;;;14.90;55.80;;;;;;6156548;23;20010;-67
2023/04/18 02:42:38;;;;;;;5.47;2.55;;;14.90;56.10;;;;;;6156502;23;20004;-69
2023/04/18 02:45:04;;;;;;;3.88;2.80;;;14.90;56.40;;;;;;6156509;23;20442;-68
2023/04/18 02:47:30;;;;;;;2.97;2.67;;;14.80;56.10;;;;;;6156561;23;20017;-68
2023/04/18 02:49:56;;;;;;;2.60;2.40;;;14.80;56.40;;;;;;6155838;23;20022;-68
2023/04/18 02:52:22;;;;;;;3.03;2.72;;;14.80;56.60;;;;;;6156240;23;20065;-67
2023/04/18 02:54:47;;;;;;;4.30;2.92;;;14.80;56.90;;;;;;6156118;23;20002;-67
2023/04/18 02:57:13;;;;;;;4.57;2.85;;;14.70;57.00;;;;;;6156495;23;20010;-67
2023/04/18 02:59:39;;;;;;;5.10;2.70;;;14.70;57.10;;;;;;6156078;23;20364;-67
2023/04/18 03:02:05;;;;;;;3.58;2.60;;;14.70;57.40;;;;;;6130018;23;20090;-68
2023/04/18 03:04:30;;;;;;;3.65;2.55;;;14.70;57.70;;;;;;6156286;23;20005;-68
2023/04/18 03:06:58;;;;;;;3.65;2.70;;;14.60;57.70;;;;;;6156120;23;19998;-67
2023/04/18 03:09:24;;;;;;;4.05;2.50;;;14.60;58.10;;;;;;6155715;23;20503;-68
2023/04/18 03:11:50;;;;;;;3.33;2.50;;;14.60;57.90;;;;;;6156123;23;20105;-67
2023/04/18 03:14:16;;;;;;;5.18;2.72;;;14.60;58.30;;;;;;6156017;23;20033;-68
2023/04/18 03:16:42;;;;;;;3.42;3.03;;;14.50;58.70;;;;;;6156113;23;20008;-68
2023/04/18 03:19:08;;;;;;;5.30;2.63;;;14.50;58.90;;;;;;6156100;23;20005;-68
2023/04/18 03:21:33;;;;;;;5.25;2.45;;;14.50;59.30;;;;;;6156129;23;20029;-68
2023/04/18 03:23:59;;;;;;;7.05;3.15;;;14.40;59.20;;;;;;6155870;23;20068;-68
2023/04/18 03:26:25;;;;;;;4.63;3.15;;;14.40;59.60;;;;;;6156362;23;20006;-67
2023/04/18 03:28:51;;;;;;;7.55;2.95;;;14.40;59.70;;;;;;6155951;23;20497;-68
2023/04/18 03:31:17;;;;;;;5.90;2.58;;;14.30;59.50;;;;;;6156008;23;20029;-68
2023/04/18 03:33:44;;;;;;;3.40;3.10;;;14.30;59.60;;;;;;6156199;23;20005;-68
2023/04/18 03:36:11;;;;;;;3.92;2.75;;;14.30;60.10;;;;;;6156063;23;20378;-68
2023/04/18 03:38:39;;;;;;;2.90;2.50;;;14.30;59.90;;;;;;6155967;23;20056;-68
2023/04/18 03:41:05;;;;;;;4.75;3.42;;;14.20;59.60;;;;;;6155770;23;19997;-68
2023/04/18 03:43:30;;;;;;;4.68;3.85;;;14.20;59.80;;;;;;6155878;23;20009;-68
2023/04/18 03:45:56;;;;;;;5.65;4.10;;;14.20;60.00;;;;;;6155507;23;20001;-67
2023/04/18 03:48:22;;;;;;;6.10;3.50;;;14.10;59.80;;;;;;6155437;23;20008;-68
2023/04/18 03:50:48;;;;;;;6.13;3.20;;;14.10;59.90;;;;;;6155628;23;20498;-68
2023/04/18 03:53:14;;;;;;;9.52;8.63;;;14.10;59.80;;;;;;6155480;23;20032;-68
2023/04/18 03:55:40;;;;;;;3.30;2.63;;;14.10;59.70;;;;;;6155374;23;20005;-67
2023/04/18 03:58:06;;;;;;;4.13;2.70;;;14.10;59.80;;;;;;6155932;23;20413;-69
2023/04/18 04:00:32;;;;;;;3.88;2.95;;;14.10;59.90;;;;;;6155956;23;20012;-68
2023/04/18 04:02:58;;;;;;;4.40;2.70;;;14.10;59.70;;;;;;6155932;23;20005;-68
2023/04/18 04:05:23;;;;;;;2.88;2.42;;;14.10;59.60;;;;;;6155871;23;20024;-67
2023/04/18 04:07:49;;;;;;;3.47;2.78;;;14.10;59.60;;;;;;6155619;23;20024;-68
2023/04/18 04:10:15;;;;;;;3.20;2.90;;;14.10;59.70;;;;;;6155610;23;20091;-68
2023/04/18 04:12:41;;;;;;;3.53;2.65;;;14.10;59.90;;;;;;6155428;23;20002;-68
2023/04/18 04:15:07;;;;;;;3.60;2.83;;;14.10;59.70;;;;;;6154768;23;20008;-67
2023/04/18 04:17:32;;;;;;;2.95;2.63;;;14.10;59.50;;;;;;6155769;23;20002;-68
2023/04/18 04:19:58;;;;;;;3.25;2.75;;;14.10;59.70;;;;;;6155548;23;20320;-68
2023/04/18 04:22:24;;;;;;;4.30;2.75;;;14.10;59.90;;;;;;6155718;23;20073;-68
2023/04/18 04:24:51;;;;;;;3.38;2.75;;;14.10;60.10;;;;;;6155397;23;20006;-67
2023/04/18 04:27:17;;;;;;;4.50;2.63;;;14.10;60.00;;;;;;6155477;23;20420;-67
2023/04/18 04:29:43;;;;;;;3.15;2.53;;;14.10;59.90;;;;;;6155355;23;20075;-67
2023/04/18 04:32:09;;;;;;;2.95;2.50;;;14.10;60.50;;;;;;6155264;23;20072;-67
2023/04/18 04:34:35;;;;;;;4.65;2.67;;;14.10;59.90;;;;;;6155591;23;20006;-68
2023/04/18 04:37:02;;;;;;;4.70;2.80;;;14.00;59.30;;;;;;6155619;23;20052;-68
2023/04/18 04:39:27;;;;;;;5.20;2.85;;;14.10;59.90;;;;;;6154978;23;20052;-67
2023/04/18 04:41:53;;;;;;;6.07;3.42;;;14.00;60.60;;;;;;6155416;23;20298;-68
2023/04/18 04:44:21;;;;;;;4.22;3.17;;;14.00;60.80;;;;;;6155232;23;20001;-67
2023/04/18 04:46:48;;;;;;;9.65;2.95;;;14.00;62.10;;;;;;6155194;23;20009;-68
2023/04/18 04:49:14;;;;;;;5.55;3.85;;;13.90;62.50;;;;;;6154757;23;20109;-67
2023/04/18 04:51:40;;;;;;;6.35;3.13;;;13.80;64.20;;;;;;6155259;23;20455;-68
2023/04/18 04:54:06;;;;;;;10.75;3.28;;;13.80;63.60;;;;;;6155158;23;20057;-68
2023/04/18 04:56:32;;;;;;;4.28;3.47;;;13.70;64.00;;;;;;6155364;23;20412;-68
2023/04/18 04:58:57;;;;;;;6.82;3.78;;;13.70;64.10;;;;;;6155189;23;20332;-69
2023/04/18 05:01:23;;;;;;;6.22;3.10;;;13.70;64.40;;;;;;6155340;23;20014;-68
2023/04/18 05:03:51;;;;;;;6.13;3.50;;;13.60;64.20;;;;;;6155147;23;20025;-68
2023/04/18 05:06:19;;;;;;;8.77;3.78;;;13.60;64.60;;;;;;6155522;23;20006;-68
2023/04/18 05:08:46;;;;;;;9.40;3.72;;;13.60;65.40;;;;;;6154994;23;20021;-67
2023/04/18 05:11:12;;;;;;;6.32;3.45;;;13.60;65.40;;;;;;6155057;23;20091;-68
2023/04/18 05:13:38;;;;;;;3.85;3.10;;;13.60;65.50;;;;;;6154942;23;19997;-68
2023/04/18 05:16:04;;;;;;;5.63;3.30;;;13.60;65.50;;;;;;6155218;23;20005;-68
2023/04/18 05:18:30;;;;;;;5.75;3.25;;;13.60;66.00;;;;;;6155246;23;20097;-68
2023/04/18 05:20:56;;;;;;;5.20;2.97;;;13.60;65.40;;;;;;6155109;23;20440;-68
2023/04/18 05:23:22;;;;;;;3.97;2.90;;;13.70;65.10;;;;;;6154923;23;20002;-67
2023/04/18 05:25:47;;;;;;;4.28;3.30;;;13.70;65.50;;;;;;6156127;23;20116;-68
2023/04/18 05:28:13;;;;;;;4.93;2.97;;;13.70;66.90;;;;;;6156862;23;20006;-67
2023/04/18 05:30:39;;;;;;;4.72;2.88;;;13.70;67.20;;;;;;6156977;23;20084;-67
2023/04/18 05:33:05;;;;;;;6.15;3.50;;;13.70;67.10;;;;;;6156210;23;20013;-69
2023/04/18 05:35:31;;;;;;;7.22;3.20;;;13.70;67.50;;;;;;6156601;23;20006;-68
2023/04/18 05:37:57;;;;;;;8.52;3.17;;;13.70;67.90;;;;;;6156372;23;20416;-68
2023/04/18 05:40:24;;;;;;;11.57;3.10;;;13.70;68.00;;;;;;6156121;23;20048;-66
2023/04/18 05:42:49;;;;;;;5.18;3.03;;;13.70;67.90;;;;;;6156502;23;20055;-68
2023/04/18 05:45:15;;;;;;;5.88;3.47;;;13.80;68.20;;;;;;6156525;23;20073;-68
2023/04/18 05:47:41;;;;;;;5.75;3.15;;;13.80;68.40;;;;;;6156553;23;20005;-68
2023/04/18 05:50:07;;;;;;;6.35;3.08;;;13.80;68.10;;;;;;6156060;23;20024;-68
2023/04/18 05:52:33;;;;;;;5.97;3.13;;;13.80;68.10;;;;;;6156965;23;20055;-68
2023/04/18 05:54:59;;;;;;;5.97;3.20;;;13.80;68.40;;;;;;6156845;23;20013;-68
2023/04/18 05:57:25;;;;;;;11.38;3.13;;;13.90;68.70;;;;;;6156644;23;20002;-68
2023/04/18 05:59:51;;;;;;;4.22;2.40;;;13.80;68.70;;;;;;6156812;23;20450;-68
2023/04/18 06:02:16;;;;;;;4.70;2.50;;;13.90;67.70;;;;;;6156638;23;20002;-68
2023/04/18 06:04:42;;;;;;;2.15;1.58;;;13.90;66.30;;;;;;6156036;23;19998;-68
2023/04/18 06:07:08;;;;;;;5.70;1.70;;;14.00;65.00;;;;;;6156921;23;20001;-68
2023/04/18 06:09:34;;;;;;;6.38;2.00;;;14.10;63.20;;;;;;6156351;23;20014;-68
2023/04/18 06:12:00;;;;;;;7.80;3.50;;;14.20;63.30;;;;;;6155823;23;20081;-68
2023/04/18 06:14:27;;;;;;;8.30;3.85;;;14.30;65.10;;;;;;6156004;23;20049;-68
2023/04/18 06:16:53;;;;;;;6.95;4.03;;;14.40;66.20;;;;;;6156206;23;20097;-68
2023/04/18 06:19:18;;;;;;;6.47;4.20;;;14.30;67.50;;;;;;6155863;23;20036;-68
2023/04/18 06:21:44;;;;;;;7.45;4.22;;;14.40;67.90;;;;;;6156421;23;20014;-68
2023/04/18 06:24:10;;;;;;;6.50;4.03;;;14.40;68.20;;;;;;6156341;23;20033;-68
2023/04/18 06:26:36;;;;;;;5.05;3.80;;;14.40;68.20;;;;;;6156089;23;20001;-69
2023/04/18 06:29:01;;;;;;;9.70;3.53;;;14.40;67.70;;;;;;6156329;23;20010;-68
2023/04/18 06:31:27;;;;;;;5.57;3.40;;;14.40;67.50;;;;;;6156640;23;20005;-70
2023/04/18 06:33:53;;;;;;;4.45;2.80;;;14.30;67.60;;;;;;6156473;23;20006;-69
2023/04/18 06:36:19;;;;;;;7.22;3.30;;;14.40;67.80;;;;;;6156288;23;20009;-69
2023/04/18 06:38:44;;;;;;;6.32;3.10;;;14.40;68.50;;;;;;6156176;23;20001;-69
2023/04/18 06:41:12;;;;;;;3.65;3.17;;;14.40;70.20;;;;;;6156743;23;20455;-69
2023/04/18 06:43:38;;;;;;;6.63;2.90;;;14.40;69.60;;;;;;6156215;23;20001;-68
2023/04/18 06:46:04;;;;;;;5.53;4.78;;;14.50;69.70;;;;;;6155649;23;20376;-69
2023/04/18 06:48:30;;;;;;;4.38;3.58;;;14.50;69.60;;;;;;6156011;23;20033;-69
2023/04/18 06:50:56;;;;;;;4.90;3.10;;;14.60;69.40;;;;;;6155435;23;20018;-68
2023/04/18 06:53:22;;;;;;;4.25;2.70;;;14.60;69.20;;;;;;6156327;23;19997;-68
2023/04/18 06:55:48;;;;;;;10.88;3.00;;;14.70;69.00;;;;;;6156435;23;20033;-68
2023/04/18 06:58:15;;;;;;;4.15;3.30;;;14.80;68.90;;;;;;6156302;23;20032;-68
2023/04/18 07:00:42;;;;;;;5.90;2.90;;;14.90;69.00;;;;;;6156364;23;20005;-68
2023/04/18 07:03:11;;;;;;;8.43;2.55;;;14.90;69.00;;;;;;6156142;23;20324;-69
2023/04/18 07:05:38;;;;;;;6.70;2.70;;;15.00;68.30;;;;;;6156545;23;20013;-69
2023/04/18 07:08:04;;;;;;;7.60;3.30;;;15.10;67.70;;;;;;6156139;23;19997;-69
2023/04/18 07:10:29;;;;;;;4.10;3.55;;;15.10;68.60;;;;;;6156123;23;20017;-69
2023/04/18 07:12:55;;;;;;;5.00;2.50;;;15.20;68.60;;;;;;6156429;23;20052;-68
2023/04/18 07:15:21;;;;;;;6.25;2.20;;;15.20;68.70;;;;;;6156316;23;20012;-68
2023/04/18 07:17:47;;;;;;;11.35;3.05;;;15.30;69.20;;;;;;6156426;23;20009;-68
2023/04/18 07:20:13;;;;;;;5.93;2.50;;;15.40;69.00;;;;;;6156467;23;20339;-68
2023/04/18 07:22:40;;;;;;;3.67;2.25;;;15.40;69.20;;;;;;6156207;23;20004;-69
2023/04/18 07:25:06;;;;;;;6.35;2.45;;;15.40;69.10;;;;;;6156235;23;20006;-69
2023/04/18 07:27:34;;;;;;;4.75;2.25;;;15.50;69.00;;;;;;6156318;23;20002;-69
2023/04/18 07:30:01;;;;;;;3.65;2.20;;;15.60;69.20;;;;;;6155987;23;20084;-68
2023/04/18 07:32:26;;;;;;;3.95;2.30;;;15.60;67.60;;;;;;6155804;23;19998;-69
2023/04/18 07:34:52;;;;;;;2.22;1.80;;;15.70;68.70;;;;;;6155647;23;20005;-69
2023/04/18 07:37:20;;;;;;;3.95;1.95;;;15.80;67.90;;;;;;6156029;23;20005;-69
2023/04/18 07:39:46;;;;;;;2.90;2.05;;;15.90;67.60;;;;;;6155299;23;20105;-69
2023/04/18 07:42:12;;;;;;;2.90;1.30;;;16.00;67.40;;;;;;6155337;23;19998;-68
2023/04/18 07:44:38;;;;;;;1.13;1.00;;;16.10;66.00;;;;;;6155606;23;20380;-68
2023/04/18 07:47:08;;;;;;;2.03;1.10;;;16.30;61.60;;;;;;6155617;23;19998;-68
2023/04/18 07:49:34;;;;;;;14.10;1.10;;;16.40;60.60;;;;;;6155538;23;20013;-68
2023/04/18 07:52:00;;;;;;;1.65;0.93;;;16.50;60.50;;;;;;6155354;23;20025;-69
2023/04/18 07:54:26;;;;;;;0.88;0.80;;;16.70;59.50;;;;;;6155190;23;19997;-69
2023/04/18 07:56:52;;;;;;;1.25;1.00;;;16.90;57.20;;;;;;6155829;23;20012;-70
2023/04/18 07:59:17;;;;;;;2.63;1.40;;;17.00;57.20;;;;;;6154383;23;20056;-70
2023/04/18 08:01:43;;;;;;;2.53;1.50;;;17.10;58.30;;;;;;6156124;23;20001;-70
2023/04/18 08:04:09;;;;;;;22.40;5.32;;;17.30;59.30;;;;;;6155711;23;20002;-70
2023/04/18 08:06:35;;;;;;;12.25;3.22;;;17.40;59.40;;;;;;6155711;23;20005;-70
2023/04/18 08:09:04;;;;;;;9.68;2.88;;;17.50;58.20;;;;;;6154570;23;20010;-70
2023/04/18 08:11:31;;;;;;;9.55;2.95;;;17.50;58.00;;;;;;6155391;23;20001;-69
2023/04/18 08:13:56;;;;;;;17.08;3.30;;;17.60;59.10;;;;;;6155348;23;20001;-70
2023/04/18 08:16:22;;;;;;;5.88;2.92;;;17.60;60.70;;;;;;6155640;23;19997;-69
2023/04/18 08:18:48;;;;;;;8.25;2.85;;;17.60;61.30;;;;;;6156206;23;20072;-70
2023/04/18 08:21:14;;;;;;;9.50;2.55;;;17.70;61.30;;;;;;6155548;23;20332;-70
2023/04/18 08:23:39;;;;;;;8.88;2.72;;;17.60;59.90;;;;;;6155353;23;19998;-70
2023/04/18 08:26:05;;;;;;;9.88;2.20;;;17.60;59.70;;;;;;6155372;23;20001;-70
2023/04/18 08:28:31;;;;;;;9.25;2.20;;;17.60;59.00;;;;;;6155439;23;20417;-69
2023/04/18 08:30:57;;;;;;;8.43;2.25;;;17.60;58.50;;;;;;6154204;23;20013;-69
2023/04/18 08:33:23;;;;;;;17.98;2.70;;;17.60;58.60;;;;;;6155320;23;20002;-69
2023/04/18 08:35:50;;;;;;;12.80;3.15;;;17.60;58.80;;;;;;6155081;23;20048;-69
2023/04/18 08:38:17;;;;;;;9.10;2.65;;;17.50;59.10;;;;;;6155424;23;19998;-70
2023/04/18 08:40:44;;;;;;;13.25;2.33;;;17.50;59.40;;;;;;6155142;23;20008;-70
2023/04/18 08:43:13;;;;;;;11.82;1.95;;;17.40;59.50;;;;;;6155004;23;20456;-69
2023/04/18 08:45:43;;;;;;;14.35;2.20;;;17.40;59.30;;;;;;6154911;23;20005;-68
2023/04/18 08:48:16;;;;;;;16.35;2.55;;;17.40;58.90;;;;;;6154946;23;20443;-69
2023/04/18 08:50:43;;;;;;;23.30;3.05;;;17.40;58.40;;;;;;6154798;23;20017;-70
2023/04/18 08:53:10;;;;;;;14.73;3.17;;;17.40;57.90;;;;;;6154666;23;20032;-69
2023/04/18 08:55:36;;;;;;;5.78;2.10;;;17.50;58.00;;;;;;6154421;23;20005;-68
2023/04/18 08:58:05;;;;;;;4.00;2.20;;;17.40;57.30;;;;;;6155032;23;20008;-69
2023/04/18 09:00:31;;;;;;;3.10;2.00;;;17.50;57.50;;;;;;6154489;23;20001;-69
2023/04/18 09:02:57;;;;;;;5.72;2.92;;;17.50;58.30;;;;;;6154854;23;20009;-69
2023/04/18 09:05:25;;;;;;;3.85;1.95;;;17.50;59.10;;;;;;6154847;23;20005;-74
2023/04/18 09:07:53;;;;;;;2.78;1.60;;;17.50;58.00;;;;;;6128928;23;20088;-71
2023/04/18 09:10:46;;;;;;;4.40;2.85;;;17.60;57.20;;;;;;6154793;23;20016;-74
2023/04/18 09:13:11;;;;;;;4.97;1.90;;;17.60;57.70;;;;;;6149680;23;20031;-74
2023/04/18 09:15:37;;;;;;;3.17;2.10;;;17.60;58.70;;;;;;6154446;23;20005;-70
2023/04/18 09:18:09;;;;;;;3.42;2.03;;;17.70;59.00;;;;;;6154974;23;20009;-70
2023/04/18 09:20:39;;;;;;;2.03;1.60;;;17.70;58.90;;;;;;6154733;23;20032;-70
2023/04/18 09:23:20;;;;;;;2.50;1.50;;;17.70;57.80;;;;;;6155181;23;19998;-70
2023/04/18 09:25:48;;;;;;;4.15;1.98;;;17.70;57.10;;;;;;6155611;23;20016;-70
2023/04/18 09:28:23;;;;;;;1.98;1.55;;;17.80;57.00;;;;;;6155097;23;19997;-70
2023/04/18 09:30:51;;;;;;;2.45;1.30;;;17.80;57.00;;;;;;6155070;23;20106;-69
2023/04/18 09:33:21;;;;;;;3.03;1.52;;;17.80;56.70;;;;;;6154392;23;20004;-70
2023/04/18 09:35:47;;;;;;;6.10;1.75;;;17.80;56.90;;;;;;6154103;23;20439;-70
2023/04/18 09:38:12;;;;;;;1.80;1.20;;;17.80;56.80;;;;;;6154324;23;20001;-70
2023/04/18 09:40:38;;;;;;;2.30;1.38;;;17.80;55.30;;;;;;6154764;23;20002;-70
2023/04/18 09:43:18;;;;;;;3.42;1.20;;;17.90;55.00;;;;;;6154860;23;20440;-70
2023/04/18 09:45:46;;;;;;;1.95;1.33;;;17.90;55.40;;;;;;6154608;23;20025;-69
2023/04/18 09:48:12;;;;;;;5.10;1.40;;;17.90;55.60;;;;;;6154787;23;19998;-70
2023/04/18 09:50:39;;;;;;;1.85;1.30;;;18.00;55.50;;;;;;6154890;23;20017;-69
2023/04/18 09:53:06;;;;;;;2.88;1.48;;;18.00;55.60;;;;;;6155634;23;20406;-70
2023/04/18 09:55:33;;;;;;;4.68;1.25;;;18.00;56.10;;;;;;6155086;23;20006;-70
2023/04/18 09:58:02;;;;;;;2.92;1.40;;;18.10;55.30;;;;;;6155002;23;20002;-70
2023/04/18 10:00:29;;;;;;;3.10;1.73;;;18.10;54.80;;;;;;6154653;23;20001;-70
2023/04/18 10:03:04;;;;;;;2.38;1.40;;;18.20;54.90;;;;;;6155157;23;20416;-70
2023/04/18 10:05:32;;;;;;;5.15;1.30;;;18.20;56.10;;;;;;6154949;23;20005;-70
2023/04/18 10:07:58;;;;;;;1.73;1.23;;;18.40;56.00;;;;;;6154958;23;19998;-70
2023/04/18 10:10:24;;;;;;;3.55;1.17;;;18.60;55.40;;;;;;6154932;23;20341;-70
2023/04/18 10:12:54;;;;;;;2.25;1.30;;;18.70;53.50;;;;;;6155819;23;20009;-70
2023/04/18 10:15:22;;;;;;;2.35;0.98;;;18.80;53.30;;;;;;6156481;23;20001;-68
2023/04/18 10:17:56;;;;;;;3.28;1.20;;;18.90;52.40;;;;;;6156547;23;20044;-68
2023/04/18 10:20:29;;;;;;;2.50;0.90;;;18.90;52.90;;;;;;6156008;23;20076;-68
2023/04/18 10:22:57;;;;;;;5.75;1.52;;;19.10;52.90;;;;;;6156386;23;20012;-69
2023/04/18 10:25:47;;;;;;;4.30;1.02;;;19.20;53.60;;;;;;6156395;23;20002;-68
2023/04/18 10:28:13;;;;;;;2.13;0.90;;;19.40;51.60;;;;;;6156303;23;20010;-68
2023/04/18 10:30:39;;;;;;;1.70;0.75;;;19.40;50.20;;;;;;6156583;23;20344;-68
2023/04/18 10:33:23;;;;;;;1.50;0.75;;;19.40;49.50;;;;;;6156130;23;19997;-68
2023/04/18 10:36:01;;;;;;;2.47;0.90;;;19.50;50.30;;;;;;6155944;23;20020;-68
2023/04/18 10:38:27;;;;;;;2.53;0.70;;;19.60;50.70;;;;;;6156104;23;20368;-69
2023/04/18 10:41:25;;;;;;;2.50;0.80;;;19.70;50.40;;;;;;6153388;23;20076;-69
2023/04/18 10:44:06;;;;;;;1.63;0.98;;;19.90;51.00;;;;;;6152967;23;20006;-70
2023/04/18 10:46:36;;;;;;;4.15;1.10;;;20.10;50.40;;;;;;6155780;23;20547;-70
2023/04/18 10:49:30;;;;;;;2.63;1.00;;;20.10;48.60;;;;;;6156012;23;20420;-68
2023/04/18 10:52:00;;;;;;;1.25;1.00;;;20.20;49.20;;;;;;6155570;23;20022;-69
2023/04/18 10:54:36;;;;;;;1.42;1.05;;;20.40;50.60;;;;;;6155456;23;20044;-69
2023/04/18 10:57:03;;;;;;;1.42;1.00;;;20.50;50.40;;;;;;6153112;23;20119;-69
2023/04/18 10:59:30;;;;;;;1.75;1.13;;;20.60;49.10;;;;;;6153544;23;20076;-69
2023/04/18 11:02:17;;;;;;;1.38;1.10;;;20.60;49.70;;;;;;6155966;23;20001;-69
2023/04/18 11:04:55;;;;;;;7.55;1.02;;;20.70;49.10;;;;;;6156066;23;20006;-69
2023/04/18 11:07:37;;;;;;;2.58;1.20;;;20.70;49.80;;;;;;6156264;23;20006;-68
2023/04/18 11:10:05;;;;;;;1.05;0.95;;;20.70;49.20;;;;;;6156071;23;20017;-68
2023/04/18 11:12:32;;;;;;;2.38;1.00;;;20.60;48.30;;;;;;6156013;23;20486;-69
2023/04/18 11:15:03;;;;;;;3.47;1.00;;;20.60;49.10;;;;;;6155739;23;20005;-68
2023/04/18 11:17:31;;;;;;;2.67;1.20;;;20.70;48.50;;;;;;6156446;23;20025;-68
2023/04/18 11:20:12;;;;;;;2.25;1.10;;;20.80;49.30;;;;;;6156182;23;20006;-69
2023/04/18 11:22:52;;;;;;;1.70;1.02;;;21.00;50.20;;;;;;6156124;23;20002;-69
2023/04/18 11:25:27;;;;;;;1.60;1.08;;;21.00;51.10;;;;;;6156227;23;20006;-69
2023/04/18 11:27:56;;;;;;;2.20;1.02;;;21.20;50.20;;;;;;6129785;23;20009;-69
2023/04/18 11:30:22;;;;;;;1.50;1.10;;;21.20;48.30;;;;;;6155991;23;20024;-69
2023/04/18 11:32:47;;;;;;;1.77;1.27;;;21.40;47.20;;;;;;6129955;23;20013;-69
2023/04/18 11:35:14;;;;;;;2.75;1.10;;;21.40;47.60;;;;;;6129237;23;20605;-70
2023/04/18 11:37:44;;;;;;;1.92;1.27;;;21.50;48.20;;;;;;6155927;23;20001;-69
2023/04/18 11:40:11;;;;;;;1.85;1.00;;;21.50;47.50;;;;;;6155599;23;20067;-69
2023/04/18 11:42:39;;;;;;;3.22;1.33;;;21.50;48.00;;;;;;6155884;23;20002;-68
2023/04/18 11:45:22;;;;;;;2.55;1.30;;;21.60;48.50;;;;;;6155532;23;20005;-70
2023/04/18 11:47:54;;;;;;;2.65;1.35;;;21.70;47.40;;;;;;6155024;23;20085;-69
2023/04/18 11:50:19;;;;;;;4.17;1.30;;;21.60;47.10;;;;;;6154919;23;20400;-69
2023/04/18 11:52:49;;;;;;;2.17;1.08;;;21.50;46.50;;;;;;6154067;23;20001;-69
2023/04/18 11:55:21;;;;;;;2.67;1.33;;;21.40;46.40;;;;;;6129310;23;20002;-69
2023/04/18 11:57:57;;;;;;;2.60;0.90;;;21.40;46.00;;;;;;6155502;23;20014;-70
2023/04/18 12:00:38;;;;;;;2.97;0.90;;;21.30;46.20;;;;;;6155791;23;20005;-68
2023/04/18 12:03:14;;;;;;;2.22;0.85;;;21.30;46.70;;;;;;6155659;23;20037;-69
2023/04/18 12:05:41;;;;;;;3.00;1.17;;;21.40;46.20;;;;;;6155010;23;20065;-68
2023/04/18 12:08:12;;;;;;;2.85;0.93;;;21.50;46.40;;;;;;6154401;23;20590;-69
2023/04/18 12:10:52;;;;;;;3.40;1.05;;;21.50;46.00;;;;;;6154869;23;20016;-69
2023/04/18 12:13:23;;;;;;;11.43;1.50;;;21.60;46.40;;;;;;6154714;23;20089;-69
2023/04/18 12:15:49;;;;;;;1.17;0.82;;;21.60;46.70;;;;;;6155358;23;20009;-69
2023/04/18 12:18:18;;;;;;;0.60;0.50;;;21.60;45.60;;;;;;6154891;23;20068;-68
2023/04/18 12:20:49;;;;;;;2.28;0.73;;;21.60;46.80;;;;;;6155423;23;20002;-68
2023/04/18 12:23:38;;;;;;;1.80;0.80;;;21.70;46.50;;;;;;6155192;23;19998;-68
2023/04/18 12:26:17;;;;;;;4.22;0.60;;;21.80;46.10;;;;;;6154903;23;20005;-68
2023/04/18 12:28:48;;;;;;;1.17;0.50;;;21.90;45.60;;;;;;6155586;23;20077;-69
2023/04/18 12:31:14;;;;;;;1.02;0.45;;;21.90;45.00;;;;;;6155541;23;20441;-68
2023/04/18 12:33:40;;;;;;;1.17;0.60;;;22.00;45.20;;;;;;6155174;23;19998;-69
2023/04/18 12:36:07;;;;;;;0.77;0.55;;;22.00;45.00;;;;;;6155106;23;20128;-66
2023/04/18 12:38:34;;;;;;;0.60;0.50;;;21.90;44.80;;;;;;6155586;23;19997;-70
2023/04/18 12:41:00;;;;;;;3.53;0.50;;;21.90;45.20;;;;;;6155504;23;20035;-69
2023/04/18 12:43:25;;;;;;;1.77;0.80;;;21.80;44.70;;;;;;6155252;23;20010;-70
2023/04/18 12:45:51;;;;;;;1.83;0.60;;;21.80;45.80;;;;;;6155692;23;20014;-69
2023/04/18 12:48:17;;;;;;;2.45;0.55;;;21.70;45.10;;;;;;6155560;23;20031;-69